Airfield :
LOGIN :

Register | Disclaimer

   EN    FR    IT 

 










Legend :    VFR   Marginal VFR   IFR   Intensive IFR   Very Intensive IFR
Visi :
Ceiling :
>= 8 km
>= 3000ft
5 to 8 km
1000 to 3000 ft
1500m to 5 km
500 to 1000 ft
800 to 1500m
200 to 500 ft
< 800m
< 200 ft
Symbols :   Thunderstorms  Fog  Heavy snow  Heavy precipitations  Wind > 20 kt
SIGMETs :     Misc.  Thunderstorms  Icing  Turbulence  Mountain Waves  Volcanic Ashes







- Airport Elevation : 13 ft
- IATA code : SNR
- Download approach charts


LFRZ - St-Nazaire

CURRENT METAR :
  • 170730Z AUTO 24010KT 200V270 5000 DZ BR BKN004 OVC009 20/19 Q1017 TEMPO 24015G25KT 2000 DZRA

EXPIRED METARs :
  • 170700Z AUTO 23012KT 9999 OVC006 20/19 Q1017 TEMPO 24015G25KT 2000 DZRA BKN003 OVC008
  • 170630Z AUTO 23013KT 9999 2800 OVC004 20/19 Q1017 TEMPO 24015G25KT 2000 DZRA
  • 170600Z AUTO 22014KT 5000 DZ BR OVC003 19/19 Q1017 TEMPO 2000 DZRA
  • 170530Z AUTO 22013KT 4700 -DZ BR OVC003 19/19 Q1017 TEMPO 2000 DZRA
  • 170500Z AUTO 22013KT 5000 BR OVC004 19/19 Q1017 TEMPO 2000 -DZRA

TAF TAF LFRZ
Valid from the 17 at 06:00 until the 18 at 06:00 UTC


170500Z 1706/1806 23015KT 9999 BKN010 OVC020
TEMPO 1706/1806 2000 DZRA BKN003 OVC008
PROB40
TEMPO 1708/1715 24015G25KT
No reported NOTAMs for that airfield.



MET'MAP, your aeronautical weather chart ! - Copyright ORBIFLY December 2007 - Disclaimer

ORBIFLY MET'MAP TEAM :

Programming & Development : Alexandra Zaïnal
Concept & Development : Baudouin d'Aumeries
Co-Development & Prog : Marc-Olivier Méhu
Technical & hardware support : Manuel Goepfert

Contact : metmap@orbifly.com




SOURCES & CREDITS :

   NOAA